Cave Springs, AR (72718)

11:38 PM CST on December 17, 2014 (GMT -0600)
Elm Springs Rd. | Change Station
CLOSE
Current Station
Personal Weather Station
Location: Elm Springs, AR
Elevation: 1257 ft
Nearby Weather Stations

Elev 1257 ft 36.21 °N, 94.23 °W | Updated 9 seconds ago

Overcast
Overcast
36.7 °F
Feels Like 37 °F
N
0.0
Wind Variable Wind from SE
Gusts 2.0 mph

Today
High -- | Low -- °F
--% Chance of Precip.
Yesterday
High -- | Low -- °F
Precip. -- in
7:22 AM 5:03 PM
Waning Crescent, 17% visible
Pressure 30.19 in
Visibility 10.0 miles
Clouds Few 1200 ft
Mostly Cloudy 2900 ft
Overcast 3600 ft
Windchill 37 °F
Dew Point 36 °F
Humidity 96%
Rainfall 0.72 in
Snow Depth Not available.
UV 0 out of 12
Pollen 3.90 out of 12
Air Quality Not available.
Flu Activity Not available.
METAR KVBT 180535Z AUTO 13004KT 10SM FEW012 BKN029 OVC036 02/00 A3019 RMK AO1

More Conditions Fewer Conditions

Pressure 30.19 in
Visibility 10.0 miles
Clouds Few 1200 ft
Mostly Cloudy 2900 ft
Overcast 3600 ft
Windchill 37 °F
Dew Point 36 °F
Humidity 96%
Rainfall 0.72 in
Snow Depth Not available.
UV 0 out of 12
Pollen 3.90 out of 12
Air Quality Not available.
Flu Activity Not available.
METAR KVBT 180535Z AUTO 13004KT 10SM FEW012 BKN029 OVC036 02/00 A3019 RMK AO1

More Conditions Fewer Conditions

Nowcast | as of 10:58 PM CST on December 17, 2014

At 10:50 PM...National Weather Service Doppler radars continued to detect an area of light rain showers moving across far southeast Oklahoma and western Arkansas. This activity was located along and east of a line from Hugo to near Poteau to Huntsville Arkansas. To the west of this line...areas of light drizzle were being reported along with a wintry mix falling along and north of Highway 412...where temperatures were near freezing. This precipitation was moving toward the east northeast at around 25 mph. Through midnight...light to moderate rain showers will continue to move across far southeast Oklahoma and northwest Arkansas....mainly east of the Hugo to Huntsville line...with areas of drizzle possible to the west of this line. A wintry mix will also remain possible across northern portions of northeast Oklahoma into far northwest Arkansas. Little to no snow or sleet accumulation is expected. Hourly rainfall amounts will generally be a tenth of an inch or less.

×

10-Day Weather Forecast

Almanac

Astronomy

Dec. 17, 2014 Rise Set
Actual Time
Civil Twilight
Nautical Twilight
Astronomical Twilight
Moon
Length of Visible Light
Length of Day
Tomorrow will be .
, % of the Moon is Illuminated

Today's Extremes

State Highs State Lows

Community

WunderPhotos

Upload Photos

1,778,895 photos uploaded!

WunderBlogs® & News

Nearby

Air Quality

  Air Quality AQ Index Pollutant
Not available.

Snow Depth

Station Depth Elevation

Earthquake Activity

City Distance Mag. Time & Date
Minimum magnitude displayed is 2.5.

Coastal Water Temperatures

Place Temperature

Nearby Weather Stations